createdAt,value
2023-04-07T00:01:46.444Z,15.73
2023-04-07T00:04:13.830Z,14.77
2023-04-07T00:06:41.084Z,17.90
2023-04-07T00:09:08.183Z,14.83
2023-04-07T00:11:35.285Z,18.37
2023-04-07T00:14:02.391Z,17.60
2023-04-07T00:16:29.497Z,15.33
2023-04-07T00:18:56.599Z,18.13
2023-04-07T00:21:23.721Z,17.13
2023-04-07T00:23:50.864Z,15.83
2023-04-07T00:26:18.025Z,16.70
2023-04-07T00:28:45.177Z,18.20
2023-04-07T00:31:12.356Z,18.47
2023-04-07T00:33:39.500Z,19.77
2023-04-07T00:36:06.689Z,17.70
2023-04-07T00:38:33.844Z,18.90
2023-04-07T00:41:01.353Z,21.50
2023-04-07T00:43:28.485Z,16.90
2023-04-07T00:45:55.718Z,19.60
2023-04-07T00:48:23.002Z,19.37
2023-04-07T00:50:50.185Z,17.90
2023-04-07T00:53:17.422Z,19.53
2023-04-07T00:55:44.855Z,20.33
2023-04-07T00:58:11.986Z,17.80
2023-04-07T01:00:42.516Z,23.47
2023-04-07T01:03:24.471Z,21.47
2023-04-07T01:06:01.770Z,18.97
2023-04-07T01:08:36.339Z,21.40
2023-04-07T01:11:14.757Z,23.07
2023-04-07T01:13:47.807Z,21.03
2023-04-07T01:16:17.865Z,21.23
2023-04-07T01:18:46.089Z,23.13
2023-04-07T01:21:17.947Z,21.33
2023-04-07T01:24:03.855Z,22.77
2023-04-07T01:26:32.154Z,22.70
2023-04-07T01:29:02.034Z,24.33
2023-04-07T01:31:29.573Z,25.37
2023-04-07T01:33:58.272Z,27.87
2023-04-07T01:36:28.479Z,24.97
2023-04-07T01:38:55.998Z,23.83
2023-04-07T01:41:24.046Z,27.73
2023-04-07T01:43:52.126Z,24.63
2023-04-07T01:46:19.499Z,27.57
2023-04-07T01:48:46.803Z,26.07
2023-04-07T01:51:17.660Z,28.67
2023-04-07T01:53:46.456Z,28.57
2023-04-07T01:56:13.643Z,26.83
2023-04-07T01:58:40.781Z,28.97
2023-04-07T02:01:07.953Z,29.43
2023-04-07T02:03:47.703Z,30.93
2023-04-07T02:06:18.778Z,31.30
2023-04-07T02:08:48.410Z,30.37
2023-04-07T02:11:16.456Z,30.63
2023-04-07T02:13:44.497Z,34.33
2023-04-07T02:16:12.573Z,31.33
2023-04-07T02:18:40.128Z,27.90
2023-04-07T02:21:08.864Z,32.63
2023-04-07T02:23:36.417Z,26.67
2023-04-07T02:26:03.544Z,28.57
2023-04-07T02:28:30.691Z,27.27
2023-04-07T02:30:57.826Z,28.77
2023-04-07T02:33:24.957Z,28.30
2023-04-07T02:35:52.055Z,33.07
2023-04-07T02:38:19.156Z,33.07
2023-04-07T02:40:46.277Z,32.13
2023-04-07T02:43:13.438Z,29.13
2023-04-07T02:45:40.619Z,27.73
2023-04-07T02:48:07.756Z,29.90
2023-04-07T02:50:34.857Z,30.40
2023-04-07T02:53:01.951Z,28.20
2023-04-07T02:55:29.085Z,34.30
2023-04-07T02:57:56.167Z,32.27
2023-04-07T03:00:23.289Z,35.87
2023-04-07T03:02:50.992Z,32.13
2023-04-07T03:05:18.326Z,33.50
2023-04-07T03:07:45.572Z,36.37
2023-04-07T03:10:12.905Z,32.67
2023-04-07T03:12:40.076Z,35.33
2023-04-07T03:15:07.451Z,35.20
2023-04-07T03:17:34.684Z,31.03
2023-04-07T03:20:02.167Z,30.40
2023-04-07T03:22:29.302Z,32.40
2023-04-07T03:24:56.382Z,36.97
2023-04-07T03:27:23.585Z,32.23
2023-04-07T03:29:51.340Z,34.80
2023-04-07T03:32:18.608Z,37.53
2023-04-07T03:34:45.843Z,33.93
2023-04-07T03:37:12.991Z,39.23
2023-04-07T03:39:41.066Z,37.27
2023-04-07T03:42:08.250Z,36.80
2023-04-07T03:44:35.346Z,32.77
2023-04-07T03:47:02.517Z,33.87
2023-04-07T03:49:31.417Z,35.07
2023-04-07T03:51:58.806Z,33.53
2023-04-07T03:54:26.205Z,33.47
2023-04-07T03:56:53.335Z,37.60
2023-04-07T03:59:20.701Z,35.57
2023-04-07T04:01:47.810Z,39.27
2023-04-07T04:04:15.152Z,36.83
2023-04-07T04:06:42.334Z,39.17
2023-04-07T04:09:09.495Z,47.13
2023-04-07T04:11:37.315Z,36.93
2023-04-07T04:14:04.494Z,36.00
2023-04-07T04:16:31.782Z,34.23
2023-04-07T04:18:58.974Z,37.30
2023-04-07T04:21:27.336Z,29.90
2023-04-07T04:23:54.596Z,34.03
2023-04-07T04:26:25.946Z,34.23
2023-04-07T04:28:53.337Z,39.93
2023-04-07T04:31:20.527Z,37.73
2023-04-07T04:33:47.759Z,38.77
2023-04-07T04:36:14.936Z,33.13
2023-04-07T04:38:42.094Z,38.27
2023-04-07T04:41:09.268Z,40.43
2023-04-07T04:43:36.478Z,39.07
2023-04-07T04:46:03.600Z,40.23
2023-04-07T04:48:30.733Z,43.60
2023-04-07T04:50:57.837Z,45.97
2023-04-07T04:53:24.915Z,41.80
2023-04-07T04:55:53.218Z,39.30
2023-04-07T04:58:21.807Z,43.43
2023-04-07T05:00:48.968Z,41.17
2023-04-07T05:03:16.291Z,38.53
2023-04-07T05:05:43.989Z,41.70
2023-04-07T05:08:11.986Z,48.33
2023-04-07T05:10:40.441Z,42.43
2023-04-07T05:13:07.567Z,43.37
2023-04-07T05:15:34.800Z,40.63
2023-04-07T05:18:02.016Z,44.53
2023-04-07T05:20:29.184Z,42.40
2023-04-07T05:22:56.469Z,41.97
2023-04-07T05:25:23.580Z,40.13
2023-04-07T05:27:51.378Z,46.77
2023-04-07T05:30:18.536Z,42.90
2023-04-07T05:32:45.661Z,44.43
2023-04-07T05:35:12.858Z,39.43
2023-04-07T05:37:40.593Z,41.10
2023-04-07T05:40:07.980Z,39.83
2023-04-07T05:42:35.253Z,39.97
2023-04-07T05:45:02.370Z,40.43
2023-04-07T05:47:29.513Z,49.23
2023-04-07T05:49:56.713Z,46.03
2023-04-07T05:52:23.801Z,43.93
2023-04-07T05:54:50.909Z,43.83
2023-04-07T05:57:18.217Z,42.17
2023-04-07T05:59:45.858Z,43.13
2023-04-07T06:02:13.955Z,44.77
2023-04-07T06:04:41.485Z,38.33
2023-04-07T06:07:08.623Z,38.47
2023-04-07T06:09:35.784Z,37.00
2023-04-07T06:12:05.119Z,38.87
2023-04-07T06:14:32.204Z,38.23
2023-04-07T06:16:59.565Z,40.13
2023-04-07T06:19:27.521Z,39.30
2023-04-07T06:21:54.846Z,40.90
2023-04-07T06:24:22.776Z,37.90
2023-04-07T06:26:49.923Z,40.80
2023-04-07T06:29:17.386Z,39.90
2023-04-07T06:31:44.550Z,45.17
2023-04-07T06:34:11.680Z,38.80
2023-04-07T06:36:38.814Z,36.57
2023-04-07T06:39:06.292Z,38.67
2023-04-07T06:41:33.386Z,38.97
2023-04-07T06:44:00.563Z,39.03
2023-04-07T06:46:27.799Z,37.83
2023-04-07T06:48:55.052Z,39.83
2023-04-07T06:51:22.175Z,38.20
2023-04-07T06:53:49.810Z,39.57
2023-04-07T06:56:17.115Z,39.50
2023-04-07T06:58:44.459Z,38.80
2023-04-07T07:01:11.718Z,38.93
2023-04-07T07:03:39.129Z,40.30
2023-04-07T07:06:06.568Z,37.83
2023-04-07T07:08:33.748Z,39.93
2023-04-07T07:11:01.052Z,33.03
2023-04-07T07:13:29.131Z,37.73
2023-04-07T07:15:56.399Z,35.97
2023-04-07T07:18:23.652Z,37.27
2023-04-07T07:20:51.140Z,36.27
2023-04-07T07:23:18.307Z,36.90
2023-04-07T07:25:45.951Z,36.43
2023-04-07T07:28:13.198Z,37.83
2023-04-07T07:30:41.517Z,40.80
2023-04-07T07:33:08.889Z,39.43
2023-04-07T07:35:37.946Z,34.37
2023-04-07T07:38:05.215Z,34.23
2023-04-07T07:40:32.427Z,35.03
2023-04-07T07:42:59.541Z,34.97
2023-04-07T07:45:26.653Z,35.97
2023-04-07T07:47:53.764Z,38.33
2023-04-07T07:50:20.874Z,35.60
2023-04-07T07:52:47.987Z,39.57
2023-04-07T07:55:15.429Z,39.90
2023-04-07T07:57:42.841Z,42.37
2023-04-07T08:00:10.469Z,40.47
2023-04-07T08:02:38.872Z,37.53
2023-04-07T08:05:06.924Z,43.97
2023-04-07T08:07:34.113Z,44.90
2023-04-07T08:10:01.216Z,38.73
2023-04-07T08:12:28.372Z,38.77
2023-04-07T08:14:55.716Z,40.83
2023-04-07T08:17:22.883Z,36.63
2023-04-07T08:19:50.044Z,39.10
2023-04-07T08:22:19.569Z,41.60
2023-04-07T08:24:47.446Z,39.90
2023-04-07T08:27:14.654Z,37.50
2023-04-07T08:29:41.824Z,36.73
2023-04-07T08:32:08.991Z,36.07
2023-04-07T08:34:36.110Z,37.73
2023-04-07T08:37:03.353Z,36.03
2023-04-07T08:39:30.421Z,36.93
2023-04-07T08:41:58.708Z,38.40
2023-04-07T08:44:27.272Z,34.53
2023-04-07T08:46:57.304Z,38.00
2023-04-07T08:49:25.241Z,33.43
2023-04-07T08:51:53.929Z,34.73
2023-04-07T08:54:22.610Z,34.67
2023-04-07T08:56:49.760Z,33.30
2023-04-07T08:59:25.283Z,36.13
2023-04-07T09:01:52.587Z,39.60
2023-04-07T09:04:20.001Z,38.20
2023-04-07T09:06:47.288Z,52.53
2023-04-07T09:09:15.519Z,45.60
2023-04-07T09:11:42.701Z,36.90
2023-04-07T09:14:09.965Z,38.87
2023-04-07T09:16:37.161Z,37.50
2023-04-07T09:19:04.309Z,38.03
2023-04-07T09:21:47.957Z,30.80
2023-04-07T09:24:25.846Z,27.00
2023-04-07T09:27:10.017Z,26.33
2023-04-07T09:29:37.735Z,24.20
2023-04-07T09:32:05.010Z,26.10
2023-04-07T09:34:32.157Z,27.73
2023-04-07T09:36:59.595Z,27.53
2023-04-07T09:39:26.950Z,25.23
2023-04-07T09:41:54.368Z,27.63
2023-04-07T09:44:22.095Z,24.23
2023-04-07T09:46:59.215Z,24.33
2023-04-07T09:49:27.334Z,24.53
2023-04-07T09:51:54.566Z,22.07
2023-04-07T09:54:34.822Z,23.77
2023-04-07T09:57:03.116Z,23.10
2023-04-07T09:59:31.649Z,22.55
2023-04-07T10:01:59.115Z,24.83
2023-04-07T10:04:29.164Z,23.47
2023-04-07T10:06:57.093Z,23.57
2023-04-07T10:09:25.362Z,22.77
2023-04-07T10:11:53.337Z,23.10
2023-04-07T10:14:21.569Z,20.87
2023-04-07T10:16:49.097Z,20.60
2023-04-07T10:19:16.698Z,21.10
2023-04-07T10:21:44.748Z,20.60
2023-04-07T10:24:22.509Z,22.47
2023-04-07T10:27:02.503Z,18.97
2023-04-07T10:32:58.958Z,21.00
2023-04-07T10:39:07.823Z,20.87
2023-04-07T10:41:42.239Z,19.37
2023-04-07T10:44:10.976Z,17.93
2023-04-07T10:46:48.371Z,18.97
2023-04-07T10:49:19.327Z,18.73
2023-04-07T10:52:06.425Z,18.40
2023-04-07T10:54:33.544Z,20.47
2023-04-07T10:57:03.564Z,20.17
2023-04-07T10:59:31.193Z,18.23
2023-04-07T11:02:13.848Z,18.40
2023-04-07T11:04:42.616Z,17.97
2023-04-07T11:07:10.288Z,18.10
2023-04-07T11:09:37.651Z,15.60
2023-04-07T11:12:04.980Z,17.80
2023-04-07T11:14:33.082Z,17.30
2023-04-07T11:17:03.590Z,16.73
2023-04-07T11:19:32.469Z,16.53
2023-04-07T11:22:28.682Z,16.73
2023-04-07T11:24:57.314Z,16.50
2023-04-07T11:27:24.675Z,15.37
2023-04-07T11:29:51.887Z,14.57
2023-04-07T11:32:25.908Z,15.73
2023-04-07T11:34:53.349Z,15.10
2023-04-07T11:37:21.584Z,15.90
2023-04-07T11:39:54.825Z,14.77
2023-04-07T11:42:34.792Z,16.97
2023-04-07T11:45:01.996Z,17.87
2023-04-07T11:47:39.065Z,16.10
2023-04-07T11:50:06.663Z,16.73
2023-04-07T11:52:43.343Z,17.37
2023-04-07T11:55:22.004Z,17.93
2023-04-07T11:57:51.328Z,16.20
2023-04-07T12:00:18.622Z,16.73
2023-04-07T12:02:46.459Z,15.50
2023-04-07T12:05:13.841Z,16.90
2023-04-07T12:07:42.059Z,15.90
2023-04-07T12:10:21.559Z,15.33
2023-04-07T12:12:49.836Z,16.63
2023-04-07T12:15:17.015Z,17.27
2023-04-07T12:17:48.078Z,13.97
2023-04-07T12:20:15.962Z,14.97
2023-04-07T12:22:43.178Z,15.38
2023-04-07T12:25:10.412Z,15.27
2023-04-07T12:27:43.217Z,19.88
2023-04-07T12:30:11.442Z,15.88
2023-04-07T12:32:38.705Z,12.93
2023-04-07T12:35:06.870Z,15.00
2023-04-07T12:37:34.076Z,13.05
2023-04-07T12:40:01.239Z,12.23
2023-04-07T12:42:28.334Z,13.50
2023-04-07T12:44:55.533Z,11.88
2023-04-07T12:47:22.721Z,13.32
2023-04-07T12:49:50.425Z,12.07
2023-04-07T12:52:17.755Z,11.48
2023-04-07T12:54:45.419Z,11.73
2023-04-07T12:57:12.694Z,13.75
2023-04-07T12:59:39.848Z,13.93
2023-04-07T13:02:07.061Z,11.95
2023-04-07T13:04:35.391Z,13.43
2023-04-07T13:07:03.271Z,12.57
2023-04-07T13:09:30.458Z,10.75
2023-04-07T13:11:57.967Z,12.88
2023-04-07T13:14:25.278Z,13.10
2023-04-07T13:16:52.590Z,11.63
2023-04-07T13:19:19.791Z,11.35
2023-04-07T13:21:48.120Z,12.45
2023-04-07T13:24:16.007Z,11.63
2023-04-07T13:26:43.168Z,12.65
2023-04-07T13:29:10.493Z,10.95
2023-04-07T13:31:37.618Z,13.30
2023-04-07T13:34:04.757Z,11.10
2023-04-07T13:36:31.910Z,10.52
2023-04-07T13:38:59.665Z,11.45
2023-04-07T13:41:26.786Z,12.50
2023-04-07T13:43:53.964Z,13.73
2023-04-07T13:46:28.532Z,12.05
2023-04-07T13:48:56.495Z,10.07
2023-04-07T13:51:23.720Z,13.60
2023-04-07T13:53:51.033Z,12.18
2023-04-07T13:56:18.375Z,10.50
2023-04-07T13:58:45.954Z,11.63
2023-04-07T14:01:13.202Z,11.50
2023-04-07T14:03:40.398Z,10.20
2023-04-07T14:06:07.571Z,11.55
2023-04-07T14:08:34.773Z,12.57
2023-04-07T14:11:01.889Z,12.55
2023-04-07T14:13:28.988Z,11.07
2023-04-07T14:15:56.162Z,10.95
2023-04-07T14:18:23.670Z,12.80
2023-04-07T14:20:50.922Z,11.93
2023-04-07T14:23:30.079Z,10.32
2023-04-07T14:26:03.772Z,12.27
2023-04-07T14:28:30.879Z,11.57
2023-04-07T14:30:58.068Z,13.38
2023-04-07T14:33:26.203Z,10.18
2023-04-07T14:35:53.393Z,11.68
2023-04-07T14:38:25.665Z,14.20
2023-04-07T14:40:53.044Z,11.25
2023-04-07T14:43:20.258Z,11.35
2023-04-07T14:45:47.443Z,10.70
2023-04-07T14:48:14.555Z,12.17
2023-04-07T14:50:41.747Z,10.67
2023-04-07T14:53:08.933Z,12.10
2023-04-07T14:55:36.423Z,10.73
2023-04-07T14:58:03.545Z,9.70
2023-04-07T15:00:30.743Z,12.23
2023-04-07T15:02:58.305Z,10.63
2023-04-07T15:05:27.934Z,11.53
2023-04-07T15:07:55.311Z,11.23
2023-04-07T15:10:22.470Z,12.07
2023-04-07T15:12:50.358Z,11.98
2023-04-07T15:15:17.754Z,11.18
2023-04-07T15:17:45.519Z,12.60
2023-04-07T15:20:13.571Z,11.25
2023-04-07T15:22:40.859Z,10.65
2023-04-07T15:25:08.587Z,10.27
2023-04-07T15:27:35.912Z,9.88
2023-04-07T15:30:03.196Z,10.88
2023-04-07T15:32:33.362Z,9.98
2023-04-07T15:35:00.834Z,12.60
2023-04-07T15:37:27.951Z,14.43
2023-04-07T15:39:55.078Z,14.32
2023-04-07T15:42:22.195Z,12.50
2023-04-07T15:44:49.323Z,11.00
2023-04-07T15:47:16.449Z,12.25
2023-04-07T15:49:43.553Z,12.35
2023-04-07T15:52:12.043Z,13.25
2023-04-07T15:54:39.229Z,12.70
2023-04-07T15:57:06.361Z,13.07
2023-04-07T15:59:36.008Z,13.35
2023-04-07T16:02:03.304Z,12.45
2023-04-07T16:04:30.527Z,11.98
2023-04-07T16:06:57.685Z,11.35
2023-04-07T16:09:24.827Z,13.35
2023-04-07T16:11:51.940Z,13.13
2023-04-07T16:14:19.090Z,12.63
2023-04-07T16:16:46.331Z,12.67
2023-04-07T16:19:14.648Z,14.67
2023-04-07T16:21:41.822Z,13.60
2023-04-07T16:24:08.945Z,13.03
2023-04-07T16:26:36.043Z,15.27
2023-04-07T16:29:03.265Z,16.87
2023-04-07T16:31:30.619Z,13.70
2023-04-07T16:33:58.057Z,14.77
2023-04-07T16:36:26.346Z,13.83
2023-04-07T16:38:53.904Z,15.13
2023-04-07T16:41:21.810Z,14.23
2023-04-07T16:43:49.093Z,16.03
2023-04-07T16:46:16.354Z,14.43
2023-04-07T16:48:43.471Z,15.17
2023-04-07T16:51:10.775Z,15.00
2023-04-07T16:53:37.923Z,16.07
2023-04-07T16:56:05.123Z,15.03
2023-04-07T16:58:32.244Z,17.60
2023-04-07T17:00:59.387Z,19.83
2023-04-07T17:03:26.697Z,16.70
2023-04-07T17:05:54.020Z,17.57
2023-04-07T17:08:21.313Z,18.70
2023-04-07T17:10:48.392Z,16.63
2023-04-07T17:13:15.621Z,18.60
2023-04-07T17:15:42.780Z,19.57
2023-04-07T17:18:09.942Z,17.73
2023-04-07T17:20:37.157Z,15.87
2023-04-07T17:23:04.300Z,16.00
2023-04-07T17:25:31.416Z,17.77
2023-04-07T17:27:58.549Z,15.77
2023-04-07T17:30:25.641Z,18.90
2023-04-07T17:32:53.590Z,16.90
2023-04-07T17:35:21.389Z,20.90
2023-04-07T17:37:48.623Z,21.70
2023-04-07T17:40:15.818Z,18.13
2023-04-07T17:42:43.043Z,15.17
2023-04-07T17:45:10.911Z,20.70
2023-04-07T17:47:38.618Z,21.03
2023-04-07T17:50:06.035Z,16.83
2023-04-07T17:52:33.259Z,19.67
2023-04-07T17:55:00.647Z,16.37
2023-04-07T17:57:27.768Z,19.27
2023-04-07T17:59:54.881Z,17.10
2023-04-07T18:02:22.422Z,18.80
2023-04-07T18:04:50.461Z,17.03
2023-04-07T18:07:17.850Z,15.67
2023-04-07T18:09:45.123Z,16.60
2023-04-07T18:12:12.359Z,16.37
2023-04-07T18:14:39.481Z,19.93
2023-04-07T18:17:06.615Z,18.17
2023-04-07T18:19:33.996Z,15.97
2023-04-07T18:22:01.897Z,16.73
2023-04-07T18:24:29.005Z,17.77
2023-04-07T18:26:56.950Z,18.00
2023-04-07T18:29:24.076Z,17.70
2023-04-07T18:31:51.381Z,20.47
2023-04-07T18:34:18.569Z,18.93
2023-04-07T18:36:47.627Z,18.40
2023-04-07T18:39:14.876Z,20.10
2023-04-07T18:41:44.726Z,18.40
2023-04-07T18:44:12.163Z,17.27
2023-04-07T18:46:39.369Z,20.97
2023-04-07T18:49:06.563Z,17.67
2023-04-07T18:51:33.696Z,19.03
2023-04-07T18:54:00.797Z,20.80
2023-04-07T18:56:28.382Z,19.47
2023-04-07T18:58:55.691Z,22.37
2023-04-07T19:01:22.899Z,21.47
2023-04-07T19:03:50.209Z,20.13
2023-04-07T19:06:17.785Z,20.67
2023-04-07T19:08:45.045Z,23.03
2023-04-07T19:11:12.162Z,22.90
2023-04-07T19:13:39.289Z,19.93
2023-04-07T19:16:07.673Z,23.50
2023-04-07T19:18:34.890Z,23.40
2023-04-07T19:21:02.200Z,20.37
2023-04-07T19:23:30.583Z,25.27
2023-04-07T19:25:57.718Z,22.17
2023-04-07T19:28:24.933Z,22.17
2023-04-07T19:30:52.095Z,29.03
2023-04-07T19:33:19.272Z,23.43
2023-04-07T19:35:46.465Z,24.43
2023-04-07T19:38:13.601Z,21.40
2023-04-07T19:40:40.854Z,23.67
2023-04-07T19:43:08.299Z,23.10
2023-04-07T19:45:35.619Z,19.90
2023-04-07T19:48:03.173Z,21.67
2023-04-07T19:50:30.526Z,20.50
2023-04-07T19:52:57.640Z,22.93
2023-04-07T19:55:24.814Z,21.60
2023-04-07T19:57:51.956Z,22.57
2023-04-07T20:00:19.142Z,21.73
2023-04-07T20:02:46.406Z,18.33
2023-04-07T20:05:13.617Z,19.97
2023-04-07T20:07:40.801Z,20.40
2023-04-07T20:10:08.187Z,20.30
2023-04-07T20:12:35.323Z,20.13
2023-04-07T20:15:04.777Z,20.47
2023-04-07T20:17:32.587Z,21.07
2023-04-07T20:20:00.450Z,23.33
2023-04-07T20:22:42.618Z,22.07
2023-04-07T20:25:09.793Z,20.53
2023-04-07T20:27:37.415Z,21.77
2023-04-07T20:30:04.833Z,22.23
2023-04-07T20:32:32.030Z,23.80
2023-04-07T20:34:59.198Z,23.13
2023-04-07T20:37:26.575Z,22.40
2023-04-07T20:39:55.537Z,26.03
2023-04-07T20:42:22.791Z,26.03
2023-04-07T20:44:49.897Z,25.40
2023-04-07T20:47:17.735Z,28.67
2023-04-07T20:49:44.994Z,25.37
2023-04-07T20:52:12.473Z,24.10
2023-04-07T20:54:41.580Z,25.20
2023-04-07T20:57:08.819Z,24.50
2023-04-07T20:59:36.062Z,22.17
2023-04-07T21:02:03.653Z,23.33
2023-04-07T21:04:31.162Z,25.47
2023-04-07T21:06:58.402Z,26.97
2023-04-07T21:09:25.864Z,25.73
2023-04-07T21:11:53.282Z,29.00
2023-04-07T21:14:20.366Z,30.33
2023-04-07T21:16:47.498Z,28.70
2023-04-07T21:19:14.604Z,27.30
2023-04-07T21:21:41.716Z,29.07
2023-04-07T21:24:08.823Z,32.00
2023-04-07T21:26:36.109Z,27.70
2023-04-07T21:29:03.316Z,34.27
2023-04-07T21:31:30.721Z,30.57
2023-04-07T21:33:57.914Z,31.67
2023-04-07T21:36:25.803Z,27.73
2023-04-07T21:38:52.943Z,36.07
2023-04-07T21:41:20.025Z,26.57
2023-04-07T21:43:47.183Z,26.77
2023-04-07T21:46:14.353Z,27.30
2023-04-07T21:48:42.166Z,29.50
2023-04-07T21:51:09.443Z,32.50
2023-04-07T21:53:36.736Z,27.30
2023-04-07T21:56:04.011Z,26.90
2023-04-07T21:58:31.129Z,26.20
2023-04-07T22:00:58.237Z,26.00
2023-04-07T22:03:25.542Z,27.97
2023-04-07T22:05:52.845Z,28.87
2023-04-07T22:08:20.007Z,28.83
2023-04-07T22:10:47.094Z,28.57
2023-04-07T22:13:14.260Z,26.33
2023-04-07T22:15:41.399Z,26.53
2023-04-07T22:18:08.679Z,30.67
2023-04-07T22:20:35.997Z,29.13
2023-04-07T22:23:03.113Z,29.67
2023-04-07T22:25:30.327Z,31.47
2023-04-07T22:27:57.610Z,31.77
2023-04-07T22:30:25.526Z,29.07
2023-04-07T22:32:52.975Z,31.13
2023-04-07T22:35:20.326Z,27.67
2023-04-07T22:37:47.456Z,28.80
2023-04-07T22:40:14.616Z,30.47
2023-04-07T22:42:41.750Z,28.47
2023-04-07T22:45:09.292Z,32.43
2023-04-07T22:47:36.645Z,28.30
2023-04-07T22:50:03.861Z,32.50
2023-04-07T22:52:31.142Z,30.17
2023-04-07T22:54:58.384Z,33.30
2023-04-07T22:57:26.346Z,30.70
2023-04-07T22:59:53.794Z,31.63
2023-04-07T23:02:21.320Z,32.73
2023-04-07T23:04:49.599Z,31.43
2023-04-07T23:07:17.086Z,33.53
2023-04-07T23:09:44.244Z,37.63
2023-04-07T23:12:11.681Z,36.73
2023-04-07T23:14:38.756Z,34.13
2023-04-07T23:17:05.820Z,33.03
2023-04-07T23:19:32.911Z,37.67
2023-04-07T23:22:00.098Z,37.80
2023-04-07T23:24:27.230Z,40.40
2023-04-07T23:26:54.462Z,39.63
2023-04-07T23:29:21.578Z,40.10
2023-04-07T23:31:48.751Z,41.17
2023-04-07T23:34:16.014Z,43.87
2023-04-07T23:36:43.836Z,35.03
2023-04-07T23:39:11.291Z,33.27
2023-04-07T23:41:39.668Z,34.27
2023-04-07T23:44:07.231Z,33.17
2023-04-07T23:46:34.407Z,31.97
2023-04-07T23:49:01.650Z,34.33
2023-04-07T23:51:28.767Z,38.23
2023-04-07T23:53:55.873Z,39.73
2023-04-07T23:56:23.235Z,39.87
2023-04-07T23:58:50.615Z,35.30
